createdAt,value
2022-08-27T00:01:22.887Z,12.57
2022-08-27T00:03:50.319Z,14.25
2022-08-27T00:06:20.259Z,10.65
2022-08-27T00:08:49.049Z,12.10
2022-08-27T00:11:18.334Z,13.43
2022-08-27T00:13:46.472Z,10.45
2022-08-27T00:16:16.883Z,12.48
2022-08-27T00:18:48.222Z,12.35
2022-08-27T00:21:17.774Z,11.63
2022-08-27T00:23:45.475Z,12.60
2022-08-27T00:26:14.487Z,15.25
2022-08-27T00:28:43.353Z,13.48
2022-08-27T00:31:12.158Z,13.52
2022-08-27T00:33:40.595Z,13.98
2022-08-27T00:36:08.453Z,12.30
2022-08-27T00:38:36.347Z,11.05
2022-08-27T00:41:03.444Z,15.32
2022-08-27T00:43:50.499Z,16.38
2022-08-27T00:46:48.737Z,14.57
2022-08-27T00:49:52.081Z,11.70
2022-08-27T00:52:38.138Z,14.65
2022-08-27T00:55:40.339Z,12.90
2022-08-27T00:58:29.608Z,9.88
2022-08-27T01:00:58.310Z,10.70
2022-08-27T01:03:27.115Z,13.73
2022-08-27T01:05:58.179Z,12.20
2022-08-27T01:08:29.271Z,11.38
2022-08-27T01:10:59.335Z,10.30
2022-08-27T01:13:44.157Z,12.70
2022-08-27T01:16:26.474Z,10.02
2022-08-27T01:18:56.323Z,10.18
2022-08-27T01:21:54.816Z,9.82
2022-08-27T01:24:40.909Z,12.82
2022-08-27T01:27:13.741Z,11.00
2022-08-27T01:29:42.539Z,9.95
2022-08-27T01:32:19.588Z,9.48
2022-08-27T01:34:48.434Z,10.20
2022-08-27T01:37:23.792Z,10.85
2022-08-27T01:39:54.119Z,10.88
2022-08-27T01:42:36.269Z,10.05
2022-08-27T01:45:14.799Z,11.95
2022-08-27T01:47:42.540Z,10.93
2022-08-27T01:50:19.527Z,13.55
2022-08-27T01:52:47.004Z,12.55
2022-08-27T01:55:17.729Z,12.15
2022-08-27T01:57:46.436Z,12.70
2022-08-27T02:00:25.339Z,11.60
2022-08-27T02:02:52.630Z,15.57
2022-08-27T02:05:20.108Z,12.23
2022-08-27T02:07:47.706Z,9.40
2022-08-27T02:10:25.986Z,11.80
2022-08-27T02:12:53.053Z,11.52
2022-08-27T02:15:21.368Z,12.43
2022-08-27T02:17:49.064Z,15.43
2022-08-27T02:20:17.811Z,12.95
2022-08-27T02:22:45.315Z,12.70
2022-08-27T02:25:15.309Z,12.15
2022-08-27T02:27:43.343Z,12.18
2022-08-27T02:30:15.870Z,10.65
2022-08-27T02:32:43.052Z,11.13
2022-08-27T02:35:10.171Z,10.25
2022-08-27T02:37:38.012Z,12.93
2022-08-27T02:40:07.269Z,13.57
2022-08-27T02:42:34.781Z,14.18
2022-08-27T02:45:01.845Z,11.77
2022-08-27T02:47:29.275Z,10.27
2022-08-27T02:49:56.552Z,13.18
2022-08-27T02:52:25.072Z,12.05
2022-08-27T02:54:53.451Z,12.10
2022-08-27T02:57:22.244Z,13.02
2022-08-27T02:59:51.416Z,12.18
2022-08-27T03:02:20.606Z,15.85
2022-08-27T03:04:48.668Z,12.55
2022-08-27T03:07:18.903Z,11.23
2022-08-27T03:09:46.245Z,12.00
2022-08-27T03:12:13.222Z,13.07
2022-08-27T03:14:40.930Z,12.32
2022-08-27T03:17:26.341Z,17.10
2022-08-27T03:19:54.178Z,13.68
2022-08-27T03:22:21.224Z,11.68
2022-08-27T03:24:48.270Z,14.48
2022-08-27T03:27:15.520Z,11.38
2022-08-27T03:29:42.513Z,12.57
2022-08-27T03:32:09.777Z,10.60
2022-08-27T03:34:36.825Z,9.32
2022-08-27T03:37:03.881Z,8.95
2022-08-27T03:39:30.940Z,10.10
2022-08-27T03:41:57.946Z,7.50
2022-08-27T03:44:25.050Z,7.18
2022-08-27T03:46:52.919Z,9.25
2022-08-27T03:49:22.202Z,7.18
2022-08-27T03:51:51.792Z,7.22
2022-08-27T03:54:19.310Z,8.23
2022-08-27T03:56:47.110Z,6.28
2022-08-27T03:59:15.830Z,10.98
2022-08-27T04:01:44.999Z,7.97
2022-08-27T04:04:13.188Z,7.80
2022-08-27T04:06:41.424Z,5.95
2022-08-27T04:09:08.736Z,9.18
2022-08-27T04:11:36.215Z,13.23
2022-08-27T04:14:20.752Z,7.20
2022-08-27T04:16:56.195Z,10.90
2022-08-27T04:19:28.101Z,8.00
2022-08-27T04:22:01.295Z,8.57
2022-08-27T04:24:31.073Z,8.77
2022-08-27T04:26:59.590Z,8.85
2022-08-27T04:29:26.917Z,11.95
2022-08-27T04:31:54.222Z,15.48
2022-08-27T04:34:21.238Z,10.48
2022-08-27T04:36:48.882Z,12.55
2022-08-27T04:39:16.757Z,11.68
2022-08-27T04:41:43.910Z,12.40
2022-08-27T04:44:11.308Z,18.13
2022-08-27T04:46:40.723Z,18.50
2022-08-27T04:49:15.288Z,16.20
2022-08-27T04:51:43.471Z,16.70
2022-08-27T04:54:11.228Z,19.08
2022-08-27T04:56:39.288Z,24.70
2022-08-27T04:59:10.152Z,22.15
2022-08-27T05:01:39.898Z,18.83
2022-08-27T05:04:08.856Z,21.95
2022-08-27T05:06:36.909Z,21.80
2022-08-27T05:09:05.643Z,24.15
2022-08-27T05:11:34.709Z,21.33
2022-08-27T05:14:07.536Z,29.15
2022-08-27T05:16:38.863Z,27.38
2022-08-27T05:19:09.922Z,20.45
2022-08-27T05:21:40.879Z,22.27
2022-08-27T05:24:08.279Z,25.65
2022-08-27T05:26:37.188Z,23.50
2022-08-27T05:29:06.249Z,21.90
2022-08-27T05:31:35.080Z,20.75
2022-08-27T05:34:03.688Z,21.45
2022-08-27T05:36:37.479Z,21.38
2022-08-27T05:39:06.308Z,21.10
2022-08-27T05:41:34.755Z,24.52
2022-08-27T05:44:39.453Z,22.60
2022-08-27T05:46:58.608Z,24.67
2022-08-27T05:49:25.960Z,20.27
2022-08-27T05:51:52.865Z,21.35
2022-08-27T05:54:20.183Z,22.63
2022-08-27T05:56:49.926Z,19.83
2022-08-27T05:59:37.399Z,23.52
2022-08-27T06:02:06.257Z,20.77
2022-08-27T06:04:33.316Z,19.58
2022-08-27T06:07:00.492Z,18.02
2022-08-27T06:09:29.434Z,19.67
2022-08-27T06:11:59.679Z,16.65
2022-08-27T06:14:27.436Z,14.75
2022-08-27T06:16:55.661Z,19.35
2022-08-27T06:19:23.821Z,16.30
2022-08-27T06:22:00.962Z,14.40
2022-08-27T06:24:39.419Z,16.85
2022-08-27T06:27:06.556Z,18.02
2022-08-27T06:29:35.174Z,19.02
2022-08-27T06:32:02.553Z,17.23
2022-08-27T06:34:29.790Z,17.40
2022-08-27T06:36:56.820Z,20.58
2022-08-27T06:39:23.736Z,18.50
2022-08-27T06:41:50.731Z,18.73
2022-08-27T06:44:25.574Z,18.50
2022-08-27T06:46:52.637Z,21.77
2022-08-27T06:49:19.880Z,21.30
2022-08-27T06:51:48.335Z,17.40
2022-08-27T06:54:16.723Z,21.83
2022-08-27T06:56:47.764Z,19.42
2022-08-27T06:59:18.915Z,18.20
2022-08-27T07:01:49.567Z,21.60
2022-08-27T07:04:32.412Z,20.23
2022-08-27T07:07:02.441Z,22.00
2022-08-27T07:09:32.126Z,22.80
2022-08-27T07:12:00.481Z,24.42
2022-08-27T07:14:27.582Z,22.95
2022-08-27T07:16:55.285Z,24.85
2022-08-27T07:19:22.325Z,28.67
2022-08-27T07:21:50.911Z,30.85
2022-08-27T07:24:19.235Z,28.17
2022-08-27T07:26:46.655Z,27.63
2022-08-27T07:29:15.561Z,27.90
2022-08-27T07:31:43.927Z,27.75
2022-08-27T07:34:11.612Z,24.88
2022-08-27T07:36:39.235Z,22.80
2022-08-27T07:39:06.931Z,21.50
2022-08-27T07:41:54.049Z,21.02
2022-08-27T07:44:31.068Z,18.50
2022-08-27T07:47:02.421Z,19.17
2022-08-27T07:49:31.932Z,17.38
2022-08-27T07:51:59.022Z,20.13
2022-08-27T07:54:26.625Z,16.90
2022-08-27T07:56:56.007Z,19.38
2022-08-27T07:59:27.377Z,19.80
2022-08-27T08:01:56.784Z,20.70
2022-08-27T08:04:25.121Z,21.30
2022-08-27T08:06:52.633Z,19.83
2022-08-27T08:09:22.293Z,22.08
2022-08-27T08:11:50.398Z,21.58
2022-08-27T08:14:19.031Z,24.15
2022-08-27T08:16:46.523Z,21.05
2022-08-27T08:19:13.673Z,23.38
2022-08-27T08:21:41.655Z,21.55
2022-08-27T08:24:08.686Z,20.90
2022-08-27T08:26:35.943Z,20.65
2022-08-27T08:29:05.115Z,29.05
2022-08-27T08:31:32.342Z,22.48
2022-08-27T08:33:59.301Z,25.55
2022-08-27T08:36:26.287Z,20.95
2022-08-27T08:38:54.363Z,19.00
2022-08-27T08:41:42.331Z,19.05
2022-08-27T08:44:43.127Z,16.50
2022-08-27T08:47:27.624Z,16.40
2022-08-27T08:50:28.964Z,16.52
2022-08-27T08:53:57.329Z,17.73
2022-08-27T08:56:59.701Z,16.27
2022-08-27T08:59:35.392Z,14.43
2022-08-27T09:02:02.498Z,14.02
2022-08-27T09:04:30.468Z,14.50
2022-08-27T09:07:26.439Z,12.10
2022-08-27T09:10:48.104Z,11.38
2022-08-27T09:13:29.661Z,10.55
2022-08-27T09:16:02.191Z,10.57
2022-08-27T09:18:29.423Z,10.75
2022-08-27T09:21:08.832Z,9.60
2022-08-27T09:24:23.179Z,10.73
2022-08-27T09:26:50.615Z,12.93
2022-08-27T09:29:20.963Z,9.40
2022-08-27T09:32:04.366Z,10.90
2022-08-27T09:34:43.943Z,11.45
2022-08-27T09:37:17.739Z,9.13
2022-08-27T09:40:13.404Z,9.63
2022-08-27T09:42:49.572Z,9.73
2022-08-27T09:45:28.076Z,9.00
2022-08-27T09:48:18.126Z,8.40
2022-08-27T09:51:01.561Z,9.32
2022-08-27T09:53:58.361Z,9.05
2022-08-27T09:56:47.163Z,9.75
2022-08-27T09:59:23.975Z,7.55
2022-08-27T10:01:54.559Z,7.80
2022-08-27T10:04:50.521Z,6.57
2022-08-27T10:07:47.155Z,4.60
2022-08-27T10:10:43.803Z,5.70
2022-08-27T10:13:33.010Z,5.43
2022-08-27T10:16:14.975Z,5.10
2022-08-27T10:19:12.977Z,4.85
2022-08-27T10:22:08.738Z,5.97
2022-08-27T10:24:46.915Z,7.82
2022-08-27T10:27:51.740Z,5.20
2022-08-27T10:30:35.526Z,5.53
2022-08-27T10:33:26.905Z,5.72
2022-08-27T10:36:29.919Z,4.93
2022-08-27T10:39:14.801Z,6.22
2022-08-27T10:45:00.258Z,3.28
2022-08-27T10:48:06.262Z,3.92
2022-08-27T10:50:56.767Z,2.00
2022-08-27T10:53:41.429Z,2.95
2022-08-27T10:56:27.683Z,2.90
2022-08-27T10:59:05.609Z,1.73
2022-08-27T11:02:13.465Z,1.45
2022-08-27T11:04:54.230Z,1.40
2022-08-27T11:07:32.552Z,1.85
2022-08-27T11:10:07.423Z,1.17
2022-08-27T11:12:47.234Z,1.10
2022-08-27T11:15:38.945Z,2.85
2022-08-27T11:18:25.194Z,2.65
2022-08-27T11:21:05.383Z,1.20
2022-08-27T11:23:53.723Z,1.00
2022-08-27T11:26:20.749Z,3.15
2022-08-27T11:29:10.715Z,0.98
2022-08-27T11:31:50.286Z,3.65
2022-08-27T11:34:45.892Z,1.90
2022-08-27T11:37:34.940Z,1.92
2022-08-27T11:40:26.526Z,1.90
2022-08-27T11:43:05.963Z,1.33
2022-08-27T11:45:50.660Z,1.73
2022-08-27T11:48:29.819Z,6.95
2022-08-27T11:51:05.934Z,2.33
2022-08-27T11:53:42.699Z,2.92
2022-08-27T11:56:33.034Z,2.10
2022-08-27T11:59:26.619Z,2.28
2022-08-27T12:02:19.490Z,1.90
2022-08-27T12:04:48.545Z,2.67
2022-08-27T12:07:21.874Z,2.45
2022-08-27T12:10:11.503Z,2.63
2022-08-27T12:17:39.688Z,3.38
2022-08-27T12:20:19.181Z,2.90
2022-08-27T12:23:42.654Z,3.20
2022-08-27T12:26:36.170Z,3.67
2022-08-27T12:29:41.158Z,3.35
2022-08-27T12:32:26.266Z,3.78
2022-08-27T12:35:18.203Z,3.75
2022-08-27T12:37:49.575Z,3.85
2022-08-27T12:40:37.645Z,4.22
2022-08-27T12:43:13.474Z,4.80
2022-08-27T12:46:06.979Z,4.88
2022-08-27T12:48:47.314Z,6.53
2022-08-27T12:51:35.127Z,5.30
2022-08-27T12:54:58.357Z,5.60
2022-08-27T12:58:03.091Z,5.82
2022-08-27T13:00:49.197Z,7.87
2022-08-27T13:03:31.290Z,6.93
2022-08-27T13:06:00.905Z,7.03
2022-08-27T13:08:35.424Z,7.65
2022-08-27T13:13:47.644Z,7.72
2022-08-27T13:16:18.343Z,8.23
2022-08-27T13:18:51.386Z,8.18
2022-08-27T13:21:29.590Z,7.05
2022-08-27T13:24:01.755Z,7.25
2022-08-27T13:26:37.509Z,7.97
2022-08-27T13:29:09.303Z,8.10
2022-08-27T13:31:37.152Z,6.60
2022-08-27T13:34:06.403Z,8.45
2022-08-27T13:37:04.102Z,9.18
2022-08-27T13:39:33.757Z,8.07
2022-08-27T13:42:04.428Z,9.40
2022-08-27T13:44:37.712Z,9.60
2022-08-27T13:47:09.508Z,10.15
2022-08-27T13:49:39.875Z,10.32
2022-08-27T13:52:15.823Z,11.85
2022-08-27T13:55:01.394Z,11.57
2022-08-27T13:57:39.922Z,9.98
2022-08-27T14:00:31.634Z,9.43
2022-08-27T14:03:01.576Z,13.32
2022-08-27T14:05:34.077Z,10.10
2022-08-27T14:08:18.017Z,9.15
2022-08-27T14:10:57.909Z,10.73
2022-08-27T14:13:27.623Z,10.20
2022-08-27T14:15:59.181Z,10.40
2022-08-27T14:18:59.036Z,9.48
2022-08-27T14:21:23.266Z,9.60
2022-08-27T14:23:50.560Z,13.55
2022-08-27T14:26:17.854Z,11.07
2022-08-27T14:28:45.809Z,12.90
2022-08-27T14:31:14.410Z,11.13
2022-08-27T14:33:41.525Z,10.63
2022-08-27T14:36:10.103Z,10.48
2022-08-27T14:38:41.864Z,9.27
2022-08-27T14:41:09.536Z,9.27
2022-08-27T14:43:37.919Z,9.27
2022-08-27T14:46:11.364Z,8.52
2022-08-27T14:48:43.390Z,9.27
2022-08-27T14:51:26.534Z,10.23
2022-08-27T14:53:54.891Z,10.23
2022-08-27T14:56:24.260Z,10.55
2022-08-27T14:58:53.739Z,12.05
2022-08-27T15:01:25.218Z,10.00
2022-08-27T15:03:53.145Z,9.27
2022-08-27T15:06:22.443Z,8.43
2022-08-27T15:08:51.567Z,7.20
2022-08-27T15:11:25.548Z,8.30
2022-08-27T15:13:54.402Z,8.40
2022-08-27T15:16:34.390Z,8.63
2022-08-27T15:19:02.384Z,8.43
2022-08-27T15:21:31.062Z,8.43
2022-08-27T15:24:02.993Z,8.90
2022-08-27T15:26:31.465Z,8.38
2022-08-27T15:29:00.763Z,9.15
2022-08-27T15:31:31.365Z,8.18
2022-08-27T15:33:58.328Z,8.27
2022-08-27T15:36:25.449Z,8.30
2022-08-27T15:38:52.516Z,8.15
2022-08-27T15:41:19.654Z,8.52
2022-08-27T15:43:46.653Z,9.48
2022-08-27T15:46:14.246Z,11.05
2022-08-27T15:48:42.534Z,8.88
2022-08-27T15:51:13.567Z,9.52
2022-08-27T15:53:43.422Z,8.65
2022-08-27T15:56:10.439Z,8.40
2022-08-27T15:58:38.538Z,8.52
2022-08-27T16:01:15.832Z,9.57
2022-08-27T16:03:50.888Z,8.80
2022-08-27T16:06:19.676Z,11.45
2022-08-27T16:08:47.367Z,8.32
2022-08-27T16:11:15.427Z,8.68
2022-08-27T16:13:44.907Z,8.48
2022-08-27T16:16:13.216Z,8.93
2022-08-27T16:18:43.144Z,7.97
2022-08-27T16:21:10.242Z,8.13
2022-08-27T16:23:37.687Z,10.32
2022-08-27T16:26:04.910Z,8.30
2022-08-27T16:28:32.135Z,8.00
2022-08-27T16:31:00.045Z,8.48
2022-08-27T16:33:27.999Z,8.20
2022-08-27T16:35:54.835Z,8.32
2022-08-27T16:38:21.739Z,8.02
2022-08-27T16:40:53.140Z,8.50
2022-08-27T16:43:24.933Z,8.63
2022-08-27T16:45:57.356Z,10.38
2022-08-27T16:48:44.432Z,9.45
2022-08-27T16:51:21.903Z,9.77
2022-08-27T16:53:50.876Z,11.13
2022-08-27T16:56:21.558Z,10.73
2022-08-27T16:58:56.069Z,10.77
2022-08-27T17:01:24.701Z,12.85
2022-08-27T17:04:08.788Z,11.00
2022-08-27T17:06:37.522Z,12.27
2022-08-27T17:09:07.416Z,11.45
2022-08-27T17:11:36.096Z,11.82
2022-08-27T17:14:04.500Z,13.10
2022-08-27T17:16:34.555Z,13.30
2022-08-27T17:19:05.081Z,13.82
2022-08-27T17:21:34.751Z,13.73
2022-08-27T17:24:02.594Z,16.08
2022-08-27T17:26:32.066Z,15.50
2022-08-27T17:29:00.144Z,11.85
2022-08-27T17:31:33.948Z,13.32
2022-08-27T17:34:02.084Z,14.65
2022-08-27T17:36:33.104Z,15.82
2022-08-27T17:39:02.858Z,15.00
2022-08-27T17:41:34.467Z,11.38
2022-08-27T17:44:24.426Z,15.13
2022-08-27T17:46:54.094Z,15.50
2022-08-27T17:49:22.061Z,17.08
2022-08-27T17:51:54.511Z,13.40
2022-08-27T17:54:32.603Z,17.48
2022-08-27T17:57:01.110Z,16.90
2022-08-27T17:59:29.149Z,16.15
2022-08-27T18:01:57.388Z,14.18
2022-08-27T18:04:24.672Z,14.20
2022-08-27T18:06:51.963Z,16.20
2022-08-27T18:09:19.097Z,17.38
2022-08-27T18:11:46.915Z,15.23
2022-08-27T18:14:18.210Z,16.55
2022-08-27T18:16:46.293Z,15.93
2022-08-27T18:19:13.642Z,15.73
2022-08-27T18:21:42.761Z,16.55
2022-08-27T18:24:15.585Z,18.95
2022-08-27T18:26:44.777Z,17.45
2022-08-27T18:29:15.014Z,18.13
2022-08-27T18:31:43.715Z,14.23
2022-08-27T18:34:11.222Z,16.05
2022-08-27T18:36:38.383Z,17.08
2022-08-27T18:39:05.605Z,14.82
2022-08-27T18:41:33.921Z,19.17
2022-08-27T18:44:01.374Z,15.85
2022-08-27T18:46:28.645Z,18.00
2022-08-27T18:48:55.824Z,16.27
2022-08-27T18:51:22.979Z,20.08
2022-08-27T18:53:50.197Z,13.70
2022-08-27T18:56:20.787Z,19.23
2022-08-27T18:58:48.922Z,19.88
2022-08-27T19:01:24.099Z,19.58
2022-08-27T19:03:54.894Z,18.73
2022-08-27T19:06:22.074Z,14.63
2022-08-27T19:08:52.204Z,15.65
2022-08-27T19:11:19.390Z,22.05
2022-08-27T19:13:50.450Z,16.60
2022-08-27T19:16:33.949Z,15.38
2022-08-27T19:19:01.192Z,15.57
2022-08-27T19:21:28.194Z,17.80
2022-08-27T19:23:55.311Z,17.58
2022-08-27T19:26:25.837Z,16.67
2022-08-27T19:28:53.410Z,22.20
2022-08-27T19:31:20.609Z,14.93
2022-08-27T19:33:47.706Z,15.15
2022-08-27T19:36:20.133Z,17.77
2022-08-27T19:38:52.150Z,16.95
2022-08-27T19:41:21.437Z,16.92
2022-08-27T19:43:51.319Z,15.18
2022-08-27T19:46:23.299Z,15.07
2022-08-27T19:48:50.488Z,16.00
2022-08-27T19:51:17.831Z,16.00
2022-08-27T19:53:45.722Z,14.27
2022-08-27T19:56:15.132Z,14.68
2022-08-27T19:58:44.250Z,12.82
2022-08-27T20:01:12.659Z,14.38
2022-08-27T20:03:39.938Z,12.48
2022-08-27T20:06:07.086Z,14.82
2022-08-27T20:08:34.308Z,11.95
2022-08-27T20:11:01.443Z,13.27
2022-08-27T20:13:32.852Z,11.82
2022-08-27T20:16:00.764Z,12.48
2022-08-27T20:18:27.793Z,12.00
2022-08-27T20:20:54.832Z,12.93
2022-08-27T20:23:22.384Z,14.13
2022-08-27T20:25:52.307Z,13.23
2022-08-27T20:28:38.834Z,14.68
2022-08-27T20:31:06.547Z,11.82
2022-08-27T20:33:34.130Z,12.23
2022-08-27T20:36:02.607Z,15.15
2022-08-27T20:38:29.671Z,12.00
2022-08-27T20:40:56.634Z,11.00
2022-08-27T20:43:23.642Z,9.02
2022-08-27T20:45:50.722Z,10.82
2022-08-27T20:48:17.851Z,8.77
2022-08-27T20:50:45.024Z,8.10
2022-08-27T20:53:12.958Z,8.77
2022-08-27T20:55:40.059Z,12.00
2022-08-27T20:58:25.621Z,9.73
2022-08-27T21:00:54.850Z,9.90
2022-08-27T21:03:22.666Z,8.40
2022-08-27T21:05:50.035Z,11.80
2022-08-27T21:08:20.211Z,9.90
2022-08-27T21:10:51.503Z,8.27
2022-08-27T21:13:20.993Z,9.80
2022-08-27T21:15:50.179Z,11.98
2022-08-27T21:18:22.018Z,15.03
2022-08-27T21:20:58.319Z,13.90
2022-08-27T21:23:27.703Z,9.73
2022-08-27T21:25:59.397Z,9.75
2022-08-27T21:28:26.228Z,12.85
2022-08-27T21:30:53.354Z,12.73
2022-08-27T21:33:20.643Z,9.75
2022-08-27T21:35:47.906Z,8.68
2022-08-27T21:38:15.018Z,11.13
2022-08-27T21:40:43.150Z,6.82
2022-08-27T21:43:10.077Z,6.95
2022-08-27T21:45:39.156Z,8.25
2022-08-27T21:48:06.377Z,7.47
2022-08-27T21:50:33.349Z,6.50
2022-08-27T21:53:00.284Z,9.93
2022-08-27T21:55:27.276Z,8.10
2022-08-27T21:57:54.244Z,7.20
2022-08-27T22:00:29.656Z,7.28
2022-08-27T22:02:57.287Z,6.88
2022-08-27T22:05:24.649Z,9.93
2022-08-27T22:07:51.706Z,9.35
2022-08-27T22:10:18.995Z,9.95
2022-08-27T22:12:46.201Z,9.63
2022-08-27T22:15:13.321Z,9.88
2022-08-27T22:17:40.310Z,9.35
2022-08-27T22:20:09.660Z,9.15
2022-08-27T22:22:37.729Z,6.97
2022-08-27T22:25:07.768Z,8.32
2022-08-27T22:27:35.672Z,9.43
2022-08-27T22:30:03.140Z,7.07
2022-08-27T22:32:30.050Z,7.80
2022-08-27T22:34:56.962Z,9.30
2022-08-27T22:37:24.006Z,9.15
2022-08-27T22:39:51.480Z,7.93
2022-08-27T22:42:19.098Z,8.45
2022-08-27T22:44:47.335Z,10.15
2022-08-27T22:47:15.108Z,9.02
2022-08-27T22:49:43.764Z,8.75
2022-08-27T22:52:11.158Z,8.00
2022-08-27T22:54:38.357Z,8.45
2022-08-27T22:57:05.931Z,9.68
2022-08-27T22:59:39.477Z,8.52
2022-08-27T23:02:09.638Z,11.85
2022-08-27T23:04:54.581Z,8.85
2022-08-27T23:07:23.325Z,9.93
2022-08-27T23:09:50.338Z,7.85
2022-08-27T23:12:17.342Z,8.30
2022-08-27T23:14:44.377Z,7.63
2022-08-27T23:17:11.371Z,9.40
2022-08-27T23:19:38.405Z,10.00
2022-08-27T23:22:07.377Z,11.35
2022-08-27T23:24:58.522Z,10.20
2022-08-27T23:27:31.411Z,9.57
2022-08-27T23:30:01.782Z,11.38
2022-08-27T23:32:29.115Z,11.10
2022-08-27T23:34:56.920Z,9.23
2022-08-27T23:37:24.885Z,11.30
2022-08-27T23:39:51.983Z,9.38
2022-08-27T23:42:19.543Z,12.98
2022-08-27T23:44:48.118Z,10.60
2022-08-27T23:47:16.365Z,12.18
2022-08-27T23:49:43.966Z,10.50
2022-08-27T23:52:12.703Z,9.55
2022-08-27T23:54:40.128Z,11.32
2022-08-27T23:57:07.066Z,10.40
2022-08-27T23:59:34.106Z,10.55
